Time;durP1;ratioP1;P1;durP2;ratioP2;P2;SDS_P1;SDS_P2;PMS_P1;PMS_P2;Temp;Humidity;BMP_temperature;BMP_pressure;BME280_temperature;BME280_humidity;BME280_pressure;Samples;Min_cycle;Max_cycle;Signal;HPM_P1;HPM_P2
2023/02/18 00:02:12;;;;;;;53.22;36.35;;;;;;;;;;5008636;28;20500;-58
2023/02/18 00:04:38;;;;;;;54.25;36.25;;;;;;;;;;5008344;28;20022;-58
2023/02/18 00:07:04;;;;;;;51.67;36.13;;;;;;;;;;5006365;28;20470;-57
2023/02/18 00:09:30;;;;;;;44.17;33.53;;;;;;;;;;5008740;28;20033;-56
2023/02/18 00:11:56;;;;;;;53.40;40.28;;;;;;;;;;5008848;28;20116;-58
2023/02/18 00:14:23;;;;;;;51.45;34.78;;;;;;;;;;4990907;28;20046;-63
2023/02/18 00:16:49;;;;;;;61.75;38.70;;;;;;;;;;5010884;28;20022;-57
2023/02/18 00:19:18;;;;;;;54.58;38.60;;;;;;;;;;4661813;28;9999984;-59
2023/02/18 00:21:44;;;;;;;48.25;37.08;;;;;;;;;;5010626;28;20026;-55
2023/02/18 00:24:14;;;;;;;47.20;34.22;;;;;;;;;;5007879;28;20025;-55
2023/02/18 00:26:40;;;;;;;47.67;36.08;;;;;;;;;;5025442;23;20042;-64
2023/02/18 00:29:06;;;;;;;50.28;38.60;;;;;;;;;;5009760;28;20026;-60
2023/02/18 00:31:34;;;;;;;55.67;39.40;;;;;;;;;;5010649;28;20026;-63
2023/02/18 00:34:01;;;;;;;49.85;37.10;;;;;;;;;;5011418;28;20025;-62
2023/02/18 00:36:27;;;;;;;51.83;38.28;;;;;;;;;;5010262;28;20022;-61
2023/02/18 00:38:54;;;;;;;50.85;37.92;;;;;;;;;;5011615;28;20030;-62
2023/02/18 00:41:21;;;;;;;54.10;38.47;;;;;;;;;;5011303;28;20036;-61
2023/02/18 00:43:48;;;;;;;56.88;40.90;;;;;;;;;;5011906;28;20018;-61
2023/02/18 00:46:14;;;;;;;51.17;39.10;;;;;;;;;;5012532;28;20068;-59
2023/02/18 00:48:40;;;;;;;53.47;36.70;;;;;;;;;;5011345;28;20022;-62
2023/02/18 00:51:06;;;;;;;53.88;37.10;;;;;;;;;;5011676;28;20014;-62
2023/02/18 00:53:33;;;;;;;50.17;36.53;;;;;;;;;;5011837;28;20024;-62
2023/02/18 00:55:59;;;;;;;48.65;36.05;;;;;;;;;;5012345;28;20418;-62
2023/02/18 00:58:25;;;;;;;49.05;36.45;;;;;;;;;;5012432;28;20065;-62
2023/02/18 01:00:51;;;;;;;50.90;36.83;;;;;;;;;;5010855;28;20030;-62
2023/02/18 01:03:17;;;;;;;51.50;36.53;;;;;;;;;;5011464;28;20061;-63
2023/02/18 01:05:44;;;;;;;49.28;36.13;;;;;;;;;;5012107;28;20022;-62
2023/02/18 01:08:11;;;;;;;48.17;33.85;;;;;;;;;;5012255;28;20088;-62
2023/02/18 01:10:40;;;;;;;46.85;35.47;;;;;;;;;;5011147;28;20013;-67
2023/02/18 01:13:06;;;;;;;49.28;35.15;;;;;;;;;;5010239;28;20032;-62
2023/02/18 01:15:32;;;;;;;48.45;34.63;;;;;;;;;;5010793;28;20080;-62
2023/02/18 01:17:58;;;;;;;50.83;33.72;;;;;;;;;;5011915;28;20022;-62
2023/02/18 01:20:24;;;;;;;45.03;34.65;;;;;;;;;;5010872;28;20022;-63
2023/02/18 01:22:50;;;;;;;47.92;33.40;;;;;;;;;;5011999;28;20478;-62
2023/02/18 01:25:16;;;;;;;46.50;34.13;;;;;;;;;;5010114;28;20049;-62
2023/02/18 01:27:42;;;;;;;47.25;34.30;;;;;;;;;;5011841;28;20141;-61
2023/02/18 01:30:09;;;;;;;40.15;31.60;;;;;;;;;;5011766;28;20018;-62
2023/02/18 01:32:35;;;;;;;44.35;33.45;;;;;;;;;;5011980;28;20017;-63
2023/02/18 01:35:02;;;;;;;44.95;34.67;;;;;;;;;;5009981;28;20364;-62
2023/02/18 01:37:29;;;;;;;46.72;34.08;;;;;;;;;;5011741;28;20520;-63
2023/02/18 01:39:55;;;;;;;46.00;34.03;;;;;;;;;;5010647;28;20026;-62
2023/02/18 01:42:22;;;;;;;45.17;33.28;;;;;;;;;;5010400;28;20459;-62
2023/02/18 01:44:49;;;;;;;54.10;34.30;;;;;;;;;;5011176;28;20056;-63
2023/02/18 01:47:15;;;;;;;53.35;35.80;;;;;;;;;;5011630;28;20053;-63
2023/02/18 01:49:43;;;;;;;48.92;34.92;;;;;;;;;;5011710;28;20033;-62
2023/02/18 01:52:13;;;;;;;48.60;34.42;;;;;;;;;;5010481;28;20044;-63
2023/02/18 01:54:41;;;;;;;44.85;33.95;;;;;;;;;;5010934;28;20018;-62
2023/02/18 01:57:13;;;;;;;43.05;32.15;;;;;;;;;;5011536;28;20099;-63
2023/02/18 01:59:42;;;;;;;53.90;36.78;;;;;;;;;;5011692;28;20033;-63
2023/02/18 02:02:08;;;;;;;;;;;;;;;;;;5012869;28;20401;-63
2023/02/18 02:04:34;;;;;;;46.42;32.92;;;;;;;;;;5013503;28;19908;-61
2023/02/18 02:07:00;;;;;;;48.05;34.38;;;;;;;;;;5015453;28;20108;-62
2023/02/18 02:09:27;;;;;;;51.50;34.40;;;;;;;;;;5015386;28;20042;-60
2023/02/18 02:12:12;;;;;;;52.50;33.10;;;;;;;;;;5015269;28;20472;-62
2023/02/18 02:14:44;;;;;;;46.78;31.55;;;;;;;;;;5012457;28;20022;-61
2023/02/18 02:17:16;;;;;;;49.47;34.80;;;;;;;;;;5013050;28;20026;-60
2023/02/18 02:20:01;;;;;;;50.08;34.40;;;;;;;;;;5005546;28;20029;-62
2023/02/18 02:22:33;;;;;;;52.58;32.75;;;;;;;;;;5014815;28;20032;-62
2023/02/18 02:25:11;;;;;;;45.03;30.95;;;;;;;;;;5012973;28;20109;-62
2023/02/18 02:27:43;;;;;;;57.58;36.72;;;;;;;;;;5014667;28;20099;-62
2023/02/18 02:30:17;;;;;;;51.20;35.05;;;;;;;;;;5013519;28;20026;-63
2023/02/18 02:33:03;;;;;;;59.40;36.75;;;;;;;;;;5013616;28;20017;-63
2023/02/18 02:35:31;;;;;;;56.72;37.78;;;;;;;;;;5014709;28;20022;-62
2023/02/18 02:38:02;;;;;;;52.97;38.40;;;;;;;;;;5014577;28;20463;-62
2023/02/18 02:40:41;;;;;;;56.75;42.05;;;;;;;;;;5013168;28;20057;-63
2023/02/18 02:43:25;;;;;;;57.75;40.55;;;;;;;;;;5013776;28;20022;-62
2023/02/18 02:46:10;;;;;;;63.60;42.92;;;;;;;;;;5014410;28;20018;-61
2023/02/18 02:48:44;;;;;;;59.08;46.53;;;;;;;;;;5014566;28;20029;-62
2023/02/18 02:51:31;;;;;;;59.70;47.78;;;;;;;;;;5014415;28;20022;-62
2023/02/18 02:54:10;;;;;;;66.60;49.95;;;;;;;;;;5012364;28;20375;-62
2023/02/18 02:56:36;;;;;;;57.65;50.00;;;;;;;;;;5014213;28;20021;-61
2023/02/18 02:59:04;;;;;;;60.67;47.42;;;;;;;;;;5014286;28;20373;-63
2023/02/18 03:01:32;;;;;;;61.95;49.03;;;;;;;;;;5014270;28;20033;-63
2023/02/18 03:04:11;;;;;;;58.40;52.03;;;;;;;;;;5012244;28;20026;-63
2023/02/18 03:06:43;;;;;;;56.22;48.67;;;;;;;;;;5012726;28;20049;-61
2023/02/18 03:09:14;;;;;;;55.72;47.17;;;;;;;;;;5013939;28;20025;-62
2023/02/18 03:12:02;;;;;;;53.47;46.53;;;;;;;;;;5014005;28;20418;-62
2023/02/18 03:14:28;;;;;;;;;;;;;;;;;;5003123;28;20366;-62
2023/02/18 03:17:11;;;;;;;56.95;46.55;;;;;;;;;;5016961;28;19953;-62
2023/02/18 03:19:47;;;;;;;51.67;46.20;;;;;;;;;;5000901;28;20486;-62
2023/02/18 03:22:18;;;;;;;60.55;54.08;;;;;;;;;;4992710;28;20022;-62
2023/02/18 03:24:45;;;;;;;62.47;55.70;;;;;;;;;;5002459;28;20018;-62
2023/02/18 03:27:14;;;;;;;60.13;53.75;;;;;;;;;;5000350;28;20037;-62
2023/02/18 03:29:41;;;;;;;58.55;52.50;;;;;;;;;;4993954;28;20089;-62
2023/02/18 03:32:08;;;;;;;58.65;52.63;;;;;;;;;;5004532;28;20383;-60
2023/02/18 03:34:37;;;;;;;59.78;53.35;;;;;;;;;;5009178;28;20026;-61
2023/02/18 03:37:04;;;;;;;62.47;55.83;;;;;;;;;;5012071;28;20478;-62
2023/02/18 03:39:32;;;;;;;57.90;52.22;;;;;;;;;;5013517;28;20529;-63
2023/02/18 03:41:58;;;;;;;62.30;55.97;;;;;;;;;;5011943;28;20026;-61
2023/02/18 03:44:25;;;;;;;61.10;55.17;;;;;;;;;;5011310;28;20459;-62
2023/02/18 03:46:51;;;;;;;62.95;56.35;;;;;;;;;;5012139;28;20413;-63
2023/02/18 03:49:17;;;;;;;62.38;56.00;;;;;;;;;;5013185;28;20014;-61
2023/02/18 03:51:43;;;;;;;62.25;56.20;;;;;;;;;;5013195;28;20025;-61
2023/02/18 03:54:09;;;;;;;64.85;58.13;;;;;;;;;;5011065;28;20445;-62
2023/02/18 03:56:36;;;;;;;66.07;59.67;;;;;;;;;;5012962;28;20080;-59
2023/02/18 03:59:03;;;;;;;66.40;59.60;;;;;;;;;;5012989;28;20034;-63
2023/02/18 04:01:29;;;;;;;64.70;58.00;;;;;;;;;;5011662;28;20026;-62
2023/02/18 04:03:55;;;;;;;65.25;58.55;;;;;;;;;;5012216;28;20026;-61
2023/02/18 04:06:22;;;;;;;61.78;55.13;;;;;;;;;;5013023;28;20029;-63
2023/02/18 04:08:48;;;;;;;62.53;56.38;;;;;;;;;;5011744;28;20109;-62
2023/02/18 04:11:14;;;;;;;57.95;52.42;;;;;;;;;;5011521;28;20080;-61
2023/02/18 04:13:40;;;;;;;60.42;54.80;;;;;;;;;;5011960;28;20113;-62
2023/02/18 04:16:07;;;;;;;56.75;51.30;;;;;;;;;;5012725;28;20026;-62
2023/02/18 04:18:33;;;;;;;56.88;51.42;;;;;;;;;;5012869;28;20042;-62
2023/02/18 04:20:59;;;;;;;55.03;49.88;;;;;;;;;;5012861;28;20021;-61
2023/02/18 04:23:25;;;;;;;58.40;53.03;;;;;;;;;;5009474;28;20474;-61
2023/02/18 04:25:51;;;;;;;58.55;53.28;;;;;;;;;;5011052;28;20014;-60
2023/02/18 04:28:17;;;;;;;60.80;55.00;;;;;;;;;;5012658;28;20506;-62
2023/02/18 04:30:43;;;;;;;60.03;54.88;;;;;;;;;;5012556;28;20110;-62
2023/02/18 04:33:09;;;;;;;63.85;58.22;;;;;;;;;;5011777;28;20037;-62
2023/02/18 04:35:35;;;;;;;59.85;54.70;;;;;;;;;;5012289;28;20137;-62
2023/02/18 04:38:02;;;;;;;56.90;52.13;;;;;;;;;;5010917;28;20129;-61
2023/02/18 04:40:29;;;;;;;63.70;58.33;;;;;;;;;;5012382;28;20454;-63
2023/02/18 04:42:56;;;;;;;59.88;54.60;;;;;;;;;;5010757;28;20034;-60
2023/02/18 04:45:22;;;;;;;60.50;55.25;;;;;;;;;;5010268;28;20026;-60
2023/02/18 04:47:48;;;;;;;62.80;57.03;;;;;;;;;;5012114;28;20026;-62
2023/02/18 04:50:14;;;;;;;62.53;57.03;;;;;;;;;;5012099;28;20032;-62
2023/02/18 04:52:40;;;;;;;58.85;53.60;;;;;;;;;;5010755;28;20037;-60
2023/02/18 04:55:06;;;;;;;64.35;59.10;;;;;;;;;;5010075;28;20375;-59
2023/02/18 04:57:32;;;;;;;65.75;60.33;;;;;;;;;;5011918;28;20022;-63
2023/02/18 04:59:58;;;;;;;68.55;62.55;;;;;;;;;;5012078;28;20022;-62
2023/02/18 05:02:24;;;;;;;66.63;61.13;;;;;;;;;;5012006;28;20037;-62
2023/02/18 05:04:50;;;;;;;69.05;63.22;;;;;;;;;;5010018;28;20025;-60
2023/02/18 05:07:16;;;;;;;65.00;59.75;;;;;;;;;;5010701;28;20030;-62
2023/02/18 05:09:42;;;;;;;72.30;65.75;;;;;;;;;;5012194;28;20032;-62
2023/02/18 05:12:08;;;;;;;69.32;63.25;;;;;;;;;;5012035;28;20052;-62
2023/02/18 05:14:34;;;;;;;72.40;66.30;;;;;;;;;;5011127;28;20033;-61
2023/02/18 05:17:00;;;;;;;76.43;69.93;;;;;;;;;;5010618;28;20022;-62
2023/02/18 05:19:26;;;;;;;75.93;69.40;;;;;;;;;;5011974;28;20033;-62
2023/02/18 05:21:52;;;;;;;73.88;67.47;;;;;;;;;;5011781;28;20029;-62
2023/02/18 05:24:18;;;;;;;78.25;71.78;;;;;;;;;;5010220;28;20030;-60
2023/02/18 05:26:44;;;;;;;74.18;67.85;;;;;;;;;;5010621;28;20041;-62
2023/02/18 05:29:10;;;;;;;70.95;64.65;;;;;;;;;;5011890;28;20422;-61
2023/02/18 05:31:37;;;;;;;71.32;65.43;;;;;;;;;;5011820;28;20033;-60
2023/02/18 05:34:03;;;;;;;72.18;65.85;;;;;;;;;;5011337;28;20033;-62
2023/02/18 05:36:29;;;;;;;67.60;61.53;;;;;;;;;;5011685;28;20021;-59
2023/02/18 05:38:55;;;;;;;71.03;64.80;;;;;;;;;;5014923;28;20022;-61
2023/02/18 05:41:21;;;;;;;71.50;65.18;;;;;;;;;;5014484;28;20022;-61
2023/02/18 05:46:32;;;;;;;70.38;63.67;;;;;;;;;;5015926;28;20112;-62
2023/02/18 05:48:58;;;;;;;70.13;63.42;;;;;;;;;;5015627;28;20033;-62
2023/02/18 05:51:24;;;;;;;71.90;65.28;;;;;;;;;;5014226;28;20018;-62
2023/02/18 05:53:50;;;;;;;68.55;62.30;;;;;;;;;;5014154;28;20430;-60
2023/02/18 05:56:16;;;;;;;69.57;63.90;;;;;;;;;;5015663;28;20018;-59
2023/02/18 05:58:42;;;;;;;73.32;66.80;;;;;;;;;;5014216;28;20030;-60
2023/02/18 06:01:08;;;;;;;75.05;68.30;;;;;;;;;;5015236;28;20466;-60
2023/02/18 06:03:34;;;;;;;75.32;68.25;;;;;;;;;;5014302;28;20034;-60
2023/02/18 06:06:00;;;;;;;72.70;65.80;;;;;;;;;;5013359;28;20076;-61
2023/02/18 06:08:29;;;;;;;68.43;62.15;;;;;;;;;;5019698;28;20017;-61
2023/02/18 06:10:55;;;;;;;68.38;62.55;;;;;;;;;;5019449;28;20075;-60
2023/02/18 06:13:21;;;;;;;66.45;61.17;;;;;;;;;;5011899;28;21917;-58
2023/02/18 06:15:50;;;;;;;69.63;63.90;;;;;;;;;;5001282;28;20026;-62
2023/02/18 06:18:16;;;;;;;;;;;;;;;;;;5015317;28;20026;-59
2023/02/18 06:20:42;;;;;;;65.53;60.30;;;;;;;;;;5014679;28;19909;-61
2023/02/18 06:23:08;;;;;;;60.97;55.97;;;;;;;;;;5012363;28;20030;-61
2023/02/18 06:25:34;;;;;;;60.75;55.97;;;;;;;;;;5013232;28;20029;-63
2023/02/18 06:28:00;;;;;;;58.47;53.60;;;;;;;;;;5059136;22;20078;-65
2023/02/18 06:30:26;;;;;;;59.22;54.42;;;;;;;;;;5029728;28;20478;-65
2023/02/18 06:32:52;;;;;;;56.28;51.88;;;;;;;;;;5032102;28;20112;-67
2023/02/18 06:35:18;;;;;;;54.97;50.55;;;;;;;;;;5032156;28;20025;-67
2023/02/18 06:37:44;;;;;;;57.90;53.30;;;;;;;;;;5033078;28;20416;-64
2023/02/18 06:40:10;;;;;;;57.42;52.92;;;;;;;;;;5031256;28;20033;-64
2023/02/18 06:42:36;;;;;;;59.95;55.65;;;;;;;;;;5032913;28;20036;-64
2023/02/18 06:45:03;;;;;;;56.50;52.28;;;;;;;;;;5033959;28;20100;-64
2023/02/18 06:47:29;;;;;;;55.30;51.00;;;;;;;;;;5033625;28;20025;-65
2023/02/18 06:49:55;;;;;;;56.70;52.40;;;;;;;;;;5016066;28;20222;-65
2023/02/18 06:52:21;;;;;;;57.45;53.13;;;;;;;;;;5033927;28;20022;-64
2023/02/18 06:54:46;;;;;;;57.60;53.38;;;;;;;;;;5033099;28;20121;-66
2023/02/18 06:57:12;;;;;;;57.80;53.33;;;;;;;;;;5033334;28;20068;-63
2023/02/18 06:59:38;;;;;;;54.55;50.35;;;;;;;;;;5032852;28;20529;-64
2023/02/18 07:02:04;;;;;;;58.10;53.83;;;;;;;;;;5032771;28;20099;-64
2023/02/18 07:04:30;;;;;;;60.78;56.30;;;;;;;;;;5014486;28;20025;-64
2023/02/18 07:06:56;;;;;;;62.15;57.75;;;;;;;;;;5032625;28;20048;-63
2023/02/18 07:09:22;;;;;;;57.45;53.35;;;;;;;;;;5033001;28;20067;-64
2023/02/18 07:11:48;;;;;;;60.80;56.40;;;;;;;;;;5032443;28;20033;-63
2023/02/18 07:14:14;;;;;;;60.78;56.28;;;;;;;;;;5031577;28;20436;-65
2023/02/18 07:16:40;;;;;;;58.40;54.10;;;;;;;;;;5032052;28;20053;-65
2023/02/18 07:19:06;;;;;;;59.60;55.20;;;;;;;;;;5014259;28;20022;-64
2023/02/18 07:21:32;;;;;;;59.72;55.33;;;;;;;;;;5014542;28;20033;-65
2023/02/18 07:23:58;;;;;;;60.25;55.88;;;;;;;;;;5031387;28;20049;-65
2023/02/18 07:26:24;;;;;;;60.97;56.42;;;;;;;;;;5031942;28;20374;-65
2023/02/18 07:28:50;;;;;;;61.08;56.67;;;;;;;;;;5031973;28;20097;-61
2023/02/18 07:31:17;;;;;;;59.45;55.05;;;;;;;;;;5031920;28;20056;-66
2023/02/18 07:33:43;;;;;;;56.90;52.47;;;;;;;;;;5013572;28;20041;-65
2023/02/18 07:36:09;;;;;;;57.42;53.20;;;;;;;;;;5031855;28;20064;-64
2023/02/18 07:38:35;;;;;;;53.85;49.95;;;;;;;;;;5031542;28;20036;-65
2023/02/18 07:41:01;;;;;;;54.38;50.33;;;;;;;;;;5031865;28;20030;-66
2023/02/18 07:43:27;;;;;;;54.40;50.40;;;;;;;;;;5031051;28;20522;-65
2023/02/18 07:45:53;;;;;;;52.45;48.47;;;;;;;;;;5031965;28;20049;-65
2023/02/18 07:48:19;;;;;;;53.63;49.53;;;;;;;;;;5017287;28;20021;-65
2023/02/18 07:50:45;;;;;;;52.15;48.25;;;;;;;;;;5033353;28;20490;-65
2023/02/18 07:53:12;;;;;;;53.50;49.50;;;;;;;;;;5033664;28;20501;-65
2023/02/18 07:55:48;;;;;;;53.70;49.70;;;;;;;;;;5034016;28;20029;-64
2023/02/18 07:58:14;;;;;;;57.58;53.47;;;;;;;;;;5032273;28;20403;-64
2023/02/18 08:00:40;;;;;;;55.55;51.45;;;;;;;;;;5031162;28;20379;-64
2023/02/18 08:03:06;;;;;;;53.90;50.00;;;;;;;;;;5030794;28;20057;-63
2023/02/18 08:05:32;;;;;;;54.85;50.80;;;;;;;;;;5031516;28;20021;-63
2023/02/18 08:07:58;;;;;;;52.95;49.03;;;;;;;;;;5031358;28;20018;-64
2023/02/18 08:10:24;;;;;;;52.33;48.42;;;;;;;;;;5029956;28;20029;-62
2023/02/18 08:12:50;;;;;;;53.42;49.53;;;;;;;;;;5031336;28;20072;-65
2023/02/18 08:15:16;;;;;;;56.35;52.35;;;;;;;;;;5029508;28;20069;-65
2023/02/18 08:17:42;;;;;;;54.67;50.65;;;;;;;;;;5031327;28;20026;-65
2023/02/18 08:20:09;;;;;;;55.38;51.38;;;;;;;;;;5012858;28;20021;-66
2023/02/18 08:22:35;;;;;;;53.22;49.33;;;;;;;;;;5012999;28;20052;-66
2023/02/18 08:25:01;;;;;;;51.97;48.17;;;;;;;;;;5030151;28;20030;-65
2023/02/18 08:27:27;;;;;;;53.22;49.22;;;;;;;;;;5030955;28;20094;-65
2023/02/18 08:29:54;;;;;;;53.63;49.70;;;;;;;;;;5030965;28;20033;-63
2023/02/18 08:32:21;;;;;;;54.97;50.97;;;;;;;;;;5030858;28;20033;-65
2023/02/18 08:34:47;;;;;;;51.70;47.90;;;;;;;;;;5030086;28;20037;-64
2023/02/18 08:37:13;;;;;;;52.88;49.00;;;;;;;;;;5030680;28;20028;-65
2023/02/18 08:39:39;;;;;;;55.80;51.60;;;;;;;;;;5030819;28;20413;-60
2023/02/18 08:42:05;;;;;;;52.42;48.50;;;;;;;;;;5030683;28;20030;-58
2023/02/18 08:44:31;;;;;;;54.67;50.58;;;;;;;;;;5029947;28;20018;-58
2023/02/18 08:46:57;;;;;;;54.67;50.58;;;;;;;;;;5030421;28;20052;-61
2023/02/18 08:49:23;;;;;;;55.70;51.50;;;;;;;;;;5030681;28;20096;-57
2023/02/18 08:51:49;;;;;;;55.08;50.88;;;;;;;;;;5031281;28;20032;-61
2023/02/18 08:54:16;;;;;;;54.08;49.88;;;;;;;;;;5029778;28;20030;-63
2023/02/18 08:56:42;;;;;;;56.40;52.17;;;;;;;;;;5026800;28;20025;-62
2023/02/18 08:59:08;;;;;;;53.35;49.25;;;;;;;;;;5025478;28;20497;-60
2023/02/18 09:01:34;;;;;;;51.88;47.88;;;;;;;;;;5023475;28;20026;-57
2023/02/18 09:04:00;;;;;;;49.03;45.33;;;;;;;;;;5009704;28;20045;-60
2023/02/18 09:06:26;;;;;;;48.88;45.08;;;;;;;;;;5011838;28;20445;-61
2023/02/18 09:08:52;;;;;;;48.72;44.92;;;;;;;;;;5012807;28;20022;-60
2023/02/18 09:11:18;;;;;;;50.60;46.80;;;;;;;;;;5010932;28;20056;-58
2023/02/18 09:13:45;;;;;;;50.45;46.75;;;;;;;;;;5008657;28;20502;-56
2023/02/18 09:16:17;;;;;;;51.30;47.40;;;;;;;;;;5019521;28;20029;-60
2023/02/18 09:18:43;;;;;;;49.85;46.15;;;;;;;;;;5011425;28;20026;-60
2023/02/18 09:21:11;;;;;;;47.55;44.05;;;;;;;;;;5028925;28;20505;-60
2023/02/18 09:23:37;;;;;;;49.30;45.60;;;;;;;;;;5027837;28;20025;-60
2023/02/18 09:26:07;;;;;;;47.60;44.10;;;;;;;;;;5029046;28;20143;-63
2023/02/18 09:28:33;;;;;;;50.13;46.53;;;;;;;;;;5029589;28;20033;-60
2023/02/18 09:31:04;;;;;;;49.70;46.10;;;;;;;;;;5029813;28;20026;-59
2023/02/18 09:33:30;;;;;;;52.05;48.35;;;;;;;;;;5029624;28;20482;-60
2023/02/18 09:35:56;;;;;;;50.97;47.38;;;;;;;;;;5030165;28;20034;-59
2023/02/18 09:38:22;;;;;;;49.47;45.97;;;;;;;;;;5030045;28;20089;-62
2023/02/18 09:40:50;;;;;;;48.97;45.58;;;;;;;;;;5029923;28;20123;-60
2023/02/18 09:43:30;;;;;;;50.78;47.25;;;;;;;;;;5029246;28;20033;-55
2023/02/18 09:45:57;;;;;;;50.40;46.90;;;;;;;;;;5030280;28;20049;-60
2023/02/18 09:48:28;;;;;;;51.53;47.83;;;;;;;;;;5012265;28;20021;-60
2023/02/18 09:50:54;;;;;;;48.33;44.92;;;;;;;;;;5012279;28;20076;-59
2023/02/18 09:53:21;;;;;;;54.90;51.10;;;;;;;;;;5011477;28;20026;-59
2023/02/18 09:55:48;;;;;;;51.25;47.65;;;;;;;;;;5029792;28;20025;-58
2023/02/18 09:58:14;;;;;;;48.95;45.58;;;;;;;;;;5029999;28;20033;-59
2023/02/18 10:00:42;;;;;;;49.58;46.17;;;;;;;;;;5030010;28;20103;-56
2023/02/18 10:03:19;;;;;;;42.00;39.00;;;;;;;;;;5028895;28;20083;-59
2023/02/18 10:05:51;;;;;;;45.10;41.92;;;;;;;;;;5012295;28;20034;-59
2023/02/18 10:08:37;;;;;;;44.40;41.30;;;;;;;;;;5030498;28;20026;-59
2023/02/18 10:11:04;;;;;;;46.08;42.88;;;;;;;;;;5012207;28;20032;-55
2023/02/18 10:13:31;;;;;;;45.92;42.72;;;;;;;;;;5028988;28;20104;-60
2023/02/18 10:15:58;;;;;;;48.13;44.67;;;;;;;;;;5029516;28;20104;-57
2023/02/18 10:18:28;;;;;;;47.50;44.10;;;;;;;;;;5029651;28;20029;-58
2023/02/18 10:21:04;;;;;;;48.95;45.55;;;;;;;;;;5029744;28;20034;-58
2023/02/18 10:23:32;;;;;;;42.65;39.65;;;;;;;;;;5013764;28;20073;-55
2023/02/18 10:25:58;;;;;;;49.42;45.92;;;;;;;;;;5033211;28;20401;-56
2023/02/18 10:28:26;;;;;;;46.58;43.28;;;;;;;;;;5032905;28;20053;-55
2023/02/18 10:31:01;;;;;;;46.00;42.70;;;;;;;;;;5032996;28;20104;-56
2023/02/18 10:33:27;;;;;;;46.70;43.47;;;;;;;;;;5032399;28;20029;-58
2023/02/18 10:36:07;;;;;;;49.50;46.10;;;;;;;;;;5015276;28;20481;-59
2023/02/18 10:38:36;;;;;;;47.47;44.17;;;;;;;;;;5015112;28;20089;-54
2023/02/18 10:41:20;;;;;;;48.40;44.90;;;;;;;;;;5032883;28;20029;-54
2023/02/18 10:43:55;;;;;;;47.97;44.58;;;;;;;;;;5031849;28;20029;-65
2023/02/18 10:46:24;;;;;;;46.47;43.13;;;;;;;;;;5015489;28;20022;-61
2023/02/18 10:48:50;;;;;;;47.85;44.35;;;;;;;;;;5023922;28;20029;-61
2023/02/18 10:51:19;;;;;;;49.92;46.33;;;;;;;;;;5032844;28;20029;-61
2023/02/18 10:53:45;;;;;;;47.80;44.42;;;;;;;;;;5033663;28;20036;-61
2023/02/18 10:56:29;;;;;;;47.80;44.40;;;;;;;;;;4682912;28;9999589;-59
2023/02/18 10:59:00;;;;;;;47.03;43.72;;;;;;;;;;5029337;28;20029;-61
2023/02/18 11:01:26;;;;;;;45.85;42.65;;;;;;;;;;5031946;28;20033;-58
2023/02/18 11:04:04;;;;;;;49.03;45.63;;;;;;;;;;5007383;28;20034;-58
2023/02/18 11:06:37;;;;;;;50.47;46.88;;;;;;;;;;5028778;28;20108;-59
2023/02/18 11:09:03;;;;;;;48.95;45.55;;;;;;;;;;4680598;28;10000202;-57
2023/02/18 11:11:36;;;;;;;50.75;47.20;;;;;;;;;;5027715;28;20021;-60
2023/02/18 11:14:03;;;;;;;51.03;47.42;;;;;;;;;;5032131;28;20021;-55
2023/02/18 11:16:36;;;;;;;47.08;43.67;;;;;;;;;;5038899;28;20036;-61
2023/02/18 11:19:03;;;;;;;46.75;43.45;;;;;;;;;;5021538;28;20017;-60
2023/02/18 11:21:31;;;;;;;47.97;44.65;;;;;;;;;;5028620;28;20397;-57
2023/02/18 11:24:05;;;;;;;45.65;42.35;;;;;;;;;;5029220;28;20029;-62
2023/02/18 11:26:32;;;;;;;47.95;44.55;;;;;;;;;;5028980;28;20026;-60
2023/02/18 11:29:03;;;;;;;49.40;45.90;;;;;;;;;;5029280;28;20029;-60
2023/02/18 11:31:36;;;;;;;45.45;42.15;;;;;;;;;;5029443;28;20017;-59
2023/02/18 11:34:03;;;;;;;51.00;47.30;;;;;;;;;;5027451;28;20398;-61
2023/02/18 11:36:33;;;;;;;52.25;48.45;;;;;;;;;;5028437;28;20361;-55
2023/02/18 11:39:15;;;;;;;50.65;47.03;;;;;;;;;;5027941;28;20048;-63
2023/02/18 11:41:43;;;;;;;49.97;46.38;;;;;;;;;;5029930;28;20033;-62
2023/02/18 11:44:18;;;;;;;48.90;45.40;;;;;;;;;;5030838;28;20486;-58
2023/02/18 11:46:56;;;;;;;49.35;45.75;;;;;;;;;;5031796;28;20421;-61
2023/02/18 11:49:23;;;;;;;49.25;45.75;;;;;;;;;;5031414;28;20017;-58
2023/02/18 11:51:49;;;;;;;50.55;46.97;;;;;;;;;;5031344;28;20036;-63
2023/02/18 11:54:21;;;;;;;51.75;47.95;;;;;;;;;;5030630;28;20095;-62
2023/02/18 11:56:55;;;;;;;48.83;45.42;;;;;;;;;;5038661;28;20025;-61
2023/02/18 11:59:21;;;;;;;46.67;43.38;;;;;;;;;;5043405;28;20022;-61
2023/02/18 12:01:52;;;;;;;45.63;42.40;;;;;;;;;;5033256;28;20021;-58
2023/02/18 12:04:20;;;;;;;48.15;44.75;;;;;;;;;;5030535;28;20034;-56
2023/02/18 12:06:55;;;;;;;50.10;46.60;;;;;;;;;;5025900;28;20033;-53
2023/02/18 12:09:27;;;;;;;51.83;48.03;;;;;;;;;;5026328;28;20017;-56
2023/02/18 12:11:58;;;;;;;50.42;46.75;;;;;;;;;;5013388;28;20068;-60
2023/02/18 12:14:24;;;;;;;49.13;45.65;;;;;;;;;;5030102;28;20025;-55
2023/02/18 12:17:09;;;;;;;45.40;42.20;;;;;;;;;;5030891;28;20100;-58
2023/02/18 12:19:46;;;;;;;43.05;40.05;;;;;;;;;;5012847;28;20427;-61
2023/02/18 12:22:33;;;;;;;43.00;40.00;;;;;;;;;;5030693;28;20091;-63
2023/02/18 12:25:15;;;;;;;36.47;33.88;;;;;;;;;;5029985;28;20033;-62
2023/02/18 12:27:41;;;;;;;34.85;32.35;;;;;;;;;;5062174;22;20045;-57
2023/02/18 12:30:10;;;;;;;32.05;29.65;;;;;;;;;;5033069;28;20023;-57
2023/02/18 12:32:45;;;;;;;32.53;30.13;;;;;;;;;;4698948;28;10000167;-60
2023/02/18 12:35:32;;;;;;;32.47;30.05;;;;;;;;;;5047415;28;20029;-60
2023/02/18 12:38:04;;;;;;;33.08;30.60;;;;;;;;;;5029893;28;20508;-59
2023/02/18 12:40:30;;;;;;;31.25;28.95;;;;;;;;;;5027998;28;20022;-58
2023/02/18 12:42:56;;;;;;;32.22;29.83;;;;;;;;;;5028162;28;20091;-57
2023/02/18 12:45:28;;;;;;;33.22;30.83;;;;;;;;;;5026976;28;20021;-60
2023/02/18 12:48:12;;;;;;;34.22;31.73;;;;;;;;;;5009609;28;20441;-59
2023/02/18 12:50:48;;;;;;;31.85;29.55;;;;;;;;;;5010443;28;20101;-55
2023/02/18 12:53:17;;;;;;;32.28;29.88;;;;;;;;;;5027631;28;20033;-56
2023/02/18 12:56:06;;;;;;;32.45;30.05;;;;;;;;;;5027818;28;20050;-59
2023/02/18 12:58:51;;;;;;;31.45;29.13;;;;;;;;;;5010076;28;20030;-57
2023/02/18 13:01:17;;;;;;;30.80;28.50;;;;;;;;;;5010444;28;20044;-54
2023/02/18 13:03:49;;;;;;;30.50;28.20;;;;;;;;;;5028188;28;20037;-58
2023/02/18 13:06:23;;;;;;;31.95;29.55;;;;;;;;;;5047781;28;20056;-58
2023/02/18 13:08:55;;;;;;;30.50;28.20;;;;;;;;;;5047655;28;20021;-60
2023/02/18 13:11:24;;;;;;;30.90;28.60;;;;;;;;;;5047460;28;20021;-59
2023/02/18 13:14:08;;;;;;;30.05;27.83;;;;;;;;;;5044535;28;20033;-59
2023/02/18 13:16:35;;;;;;;30.75;28.45;;;;;;;;;;5030083;28;20032;-59
2023/02/18 13:19:01;;;;;;;29.95;27.65;;;;;;;;;;5029503;28;20914;-58
2023/02/18 13:21:28;;;;;;;31.85;29.55;;;;;;;;;;5047272;28;20031;-60
2023/02/18 13:24:13;;;;;;;33.70;31.20;;;;;;;;;;5021380;28;20030;-58
2023/02/18 13:26:41;;;;;;;32.50;30.10;;;;;;;;;;5048739;28;20032;-58
2023/02/18 13:29:13;;;;;;;33.93;31.43;;;;;;;;;;5032397;28;20443;-57
2023/02/18 13:31:59;;;;;;;33.53;31.05;;;;;;;;;;5048690;28;20045;-56
2023/02/18 13:34:32;;;;;;;35.70;33.10;;;;;;;;;;5049207;28;20033;-60
2023/02/18 13:37:01;;;;;;;34.65;32.15;;;;;;;;;;5032857;28;20116;-61
2023/02/18 13:39:27;;;;;;;35.40;32.90;;;;;;;;;;5039387;28;20021;-59
2023/02/18 13:42:10;;;;;;;35.17;32.67;;;;;;;;;;4684601;28;10000505;-61
2023/02/18 13:44:40;;;;;;;34.45;31.95;;;;;;;;;;5028913;28;20412;-60
2023/02/18 13:47:08;;;;;;;33.03;30.58;;;;;;;;;;5047440;28;20548;-59
2023/02/18 13:49:35;;;;;;;33.90;31.40;;;;;;;;;;5047923;28;20084;-60
2023/02/18 13:52:02;;;;;;;33.10;30.70;;;;;;;;;;5047473;28;20095;-60
2023/02/18 13:54:35;;;;;;;31.70;29.33;;;;;;;;;;5046473;28;20033;-60
2023/02/18 13:57:05;;;;;;;32.53;30.13;;;;;;;;;;5048617;28;20436;-58
2023/02/18 13:59:36;;;;;;;33.05;30.55;;;;;;;;;;5040611;28;20105;-60
2023/02/18 14:02:28;;;;;;;31.45;29.05;;;;;;;;;;5038638;28;20397;-57
2023/02/18 14:04:55;;;;;;;32.22;29.83;;;;;;;;;;5032676;28;20029;-64
2023/02/18 14:07:38;;;;;;;32.50;30.10;;;;;;;;;;5030588;28;20032;-61
2023/02/18 14:10:13;;;;;;;32.92;30.52;;;;;;;;;;5031242;28;20037;-60
2023/02/18 14:12:59;;;;;;;32.10;29.70;;;;;;;;;;5013635;28;20035;-61
2023/02/18 14:15:25;;;;;;;32.40;30.00;;;;;;;;;;5030698;28;20021;-59
2023/02/18 14:18:10;;;;;;;32.10;29.70;;;;;;;;;;5030818;28;20541;-58
2023/02/18 14:20:36;;;;;;;31.73;29.42;;;;;;;;;;5031269;28;20121;-58
2023/02/18 14:23:12;;;;;;;32.03;29.63;;;;;;;;;;5030774;28;20104;-58
2023/02/18 14:25:40;;;;;;;31.92;29.55;;;;;;;;;;5033529;28;20449;-60
2023/02/18 14:28:24;;;;;;;33.00;30.60;;;;;;;;;;5037516;28;20086;-57
2023/02/18 14:30:51;;;;;;;33.17;30.77;;;;;;;;;;5058436;28;20053;-60
2023/02/18 14:33:18;;;;;;;31.80;29.50;;;;;;;;;;5068361;28;20493;-60